createdAt,value
2017-11-24T00:00:22.706Z,992.1
2017-11-24T00:01:24.383Z,992.2
2017-11-24T00:02:25.876Z,992.2
2017-11-24T00:03:27.266Z,992.2
2017-11-24T00:04:28.798Z,992.2
2017-11-24T00:05:30.250Z,992.1
2017-11-24T00:06:31.720Z,992.1
2017-11-24T00:07:33.152Z,992.1
2017-11-24T00:08:34.572Z,992.1
2017-11-24T00:09:36.009Z,992.1
2017-11-24T00:10:37.470Z,992.1
2017-11-24T00:11:38.912Z,992.1
2017-11-24T00:12:40.428Z,992.1
2017-11-24T00:13:41.904Z,992.1
2017-11-24T00:14:43.366Z,992.1
2017-11-24T00:15:44.850Z,992.1
2017-11-24T00:16:46.339Z,992.1
2017-11-24T00:17:47.781Z,992.0
2017-11-24T00:18:49.273Z,992.0
2017-11-24T00:19:50.707Z,992.0
2017-11-24T00:20:52.154Z,992.0
2017-11-24T00:21:53.598Z,991.9
2017-11-24T00:22:55.028Z,992.0
2017-11-24T00:23:56.540Z,991.9
2017-11-24T00:24:58.025Z,991.9
2017-11-24T00:25:59.825Z,991.9
2017-11-24T00:27:01.297Z,991.9
2017-11-24T00:28:02.761Z,991.9
2017-11-24T00:29:04.232Z,992.0
2017-11-24T00:30:05.745Z,991.9
2017-11-24T00:31:07.218Z,991.9
2017-11-24T00:32:08.652Z,991.9
2017-11-24T00:33:10.137Z,991.9
2017-11-24T00:34:11.688Z,991.9
2017-11-24T00:35:13.140Z,992.0
2017-11-24T00:36:14.570Z,991.9
2017-11-24T00:37:16.034Z,991.9
2017-11-24T00:38:17.488Z,992.0
2017-11-24T00:39:18.987Z,992.0
2017-11-24T00:40:20.429Z,992.0
2017-11-24T00:41:21.867Z,992.0
2017-11-24T00:42:23.360Z,992.0
2017-11-24T00:43:24.788Z,992.0
2017-11-24T00:44:26.276Z,992.0
2017-11-24T00:45:27.780Z,992.0
2017-11-24T00:46:29.310Z,992.0
2017-11-24T00:47:30.779Z,992.0
2017-11-24T00:48:32.253Z,992.0
2017-11-24T00:49:33.727Z,992.1
2017-11-24T00:50:35.206Z,992.1
2017-11-24T00:51:36.666Z,992.0
2017-11-24T00:52:38.153Z,992.0
2017-11-24T00:53:39.691Z,992.0
2017-11-24T00:54:41.151Z,992.1
2017-11-24T00:55:42.619Z,992.1
2017-11-24T00:56:44.097Z,992.1
2017-11-24T00:57:45.574Z,992.1
2017-11-24T00:58:47.053Z,992.2
2017-11-24T00:59:48.570Z,992.1
2017-11-24T01:00:50.038Z,992.2
2017-11-24T01:01:51.473Z,992.2
2017-11-24T01:02:52.922Z,992.2
2017-11-24T01:03:54.381Z,992.2
2017-11-24T01:04:55.797Z,992.1
2017-11-24T01:05:57.341Z,992.1
2017-11-24T01:06:58.859Z,992.2
2017-11-24T01:08:00.359Z,992.1
2017-11-24T01:09:01.885Z,992.1
2017-11-24T01:10:03.322Z,992.1
2017-11-24T01:11:04.830Z,992.1
2017-11-24T01:12:06.329Z,992.1
2017-11-24T01:13:07.761Z,992.1
2017-11-24T01:14:09.244Z,992.1
2017-11-24T01:15:10.736Z,992.1
2017-11-24T01:16:12.218Z,992.2
2017-11-24T01:17:13.726Z,992.2
2017-11-24T01:18:15.156Z,992.1
2017-11-24T01:19:16.694Z,992.1
2017-11-24T01:20:18.268Z,992.1
2017-11-24T01:21:19.734Z,992.2
2017-11-24T01:22:21.292Z,992.2
2017-11-24T01:23:22.806Z,992.2
2017-11-24T01:24:24.351Z,992.2
2017-11-24T01:25:25.889Z,992.2
2017-11-24T01:26:27.402Z,992.1
2017-11-24T01:27:28.914Z,992.1
2017-11-24T01:28:30.453Z,992.1
2017-11-24T01:29:31.927Z,992.1
2017-11-24T01:30:33.436Z,992.1
2017-11-24T01:31:34.936Z,992.1
2017-11-24T01:32:36.491Z,992.1
2017-11-24T01:33:38.045Z,992.1
2017-11-24T01:34:39.545Z,992.1
2017-11-24T01:35:41.075Z,992.2
2017-11-24T01:36:42.745Z,992.2
2017-11-24T01:37:44.270Z,992.1
2017-11-24T01:38:45.781Z,992.2
2017-11-24T01:39:47.277Z,992.2
2017-11-24T01:40:48.735Z,992.2
2017-11-24T01:41:50.263Z,992.2
2017-11-24T01:42:51.795Z,992.1
2017-11-24T01:43:53.329Z,992.1
2017-11-24T01:44:54.865Z,992.2
2017-11-24T01:45:56.427Z,992.2
2017-11-24T01:46:57.942Z,992.1
2017-11-24T01:47:59.412Z,992.1
2017-11-24T01:49:00.994Z,992.1
2017-11-24T01:50:02.503Z,992.1
2017-11-24T01:51:04.080Z,992.1
2017-11-24T01:52:05.573Z,992.1
2017-11-24T01:53:07.104Z,992.1
2017-11-24T01:54:08.664Z,992.1
2017-11-24T01:55:10.157Z,992.1
2017-11-24T01:56:11.670Z,992.1
2017-11-24T01:57:13.166Z,992.0
2017-11-24T01:58:14.635Z,992.0
2017-11-24T01:59:16.188Z,992.0
2017-11-24T02:00:17.713Z,992.1
2017-11-24T02:01:19.353Z,992.1
2017-11-24T02:02:20.849Z,992.1
2017-11-24T02:03:22.343Z,992.2
2017-11-24T02:04:23.950Z,992.1
2017-11-24T02:05:25.438Z,992.1
2017-11-24T02:06:26.962Z,992.1
2017-11-24T02:07:28.481Z,992.1
2017-11-24T02:08:30.065Z,992.0
2017-11-24T02:09:31.583Z,992.0
2017-11-24T02:10:33.108Z,992.1
2017-11-24T02:11:34.675Z,992.0
2017-11-24T02:12:36.162Z,992.0
2017-11-24T02:13:37.655Z,992.0
2017-11-24T02:14:39.156Z,992.0
2017-11-24T02:15:40.705Z,991.9
2017-11-24T02:16:42.210Z,992.0
2017-11-24T02:17:43.656Z,992.0
2017-11-24T02:18:45.135Z,992.0
2017-11-24T02:19:46.649Z,991.9
2017-11-24T02:20:48.186Z,991.9
2017-11-24T02:21:49.719Z,991.9
2017-11-24T02:22:51.244Z,992.0
2017-11-24T02:23:52.708Z,992.0
2017-11-24T02:24:54.214Z,991.9
2017-11-24T02:25:55.672Z,991.9
2017-11-24T02:26:57.143Z,991.9
2017-11-24T02:27:58.659Z,991.9
2017-11-24T02:29:00.225Z,991.8
2017-11-24T02:30:01.766Z,991.8
2017-11-24T02:31:03.300Z,991.8
2017-11-24T02:32:04.872Z,991.9
2017-11-24T02:33:06.364Z,991.8
2017-11-24T02:34:07.882Z,991.8
2017-11-24T02:35:09.389Z,991.8
2017-11-24T02:36:10.901Z,991.8
2017-11-24T02:37:12.373Z,991.8
2017-11-24T02:38:13.876Z,991.7
2017-11-24T02:39:15.330Z,991.7
2017-11-24T02:40:16.895Z,991.7
2017-11-24T02:41:18.354Z,991.7
2017-11-24T02:42:19.869Z,991.7
2017-11-24T02:43:21.411Z,991.7
2017-11-24T02:44:22.896Z,991.8
2017-11-24T02:45:24.339Z,991.8
2017-11-24T02:46:25.868Z,991.7
2017-11-24T02:47:27.374Z,991.7
2017-11-24T02:48:28.947Z,991.7
2017-11-24T02:49:30.421Z,991.7
2017-11-24T02:50:31.925Z,991.7
2017-11-24T02:51:33.440Z,991.7
2017-11-24T02:52:35.073Z,991.7
2017-11-24T02:53:36.567Z,991.7
2017-11-24T02:54:39.003Z,991.7
2017-11-24T02:55:40.523Z,991.6
2017-11-24T02:56:42.017Z,991.6
2017-11-24T02:57:43.528Z,991.6
2017-11-24T02:58:45.060Z,991.6
2017-11-24T02:59:46.558Z,991.6
2017-11-24T03:00:48.001Z,991.6
2017-11-24T03:01:49.519Z,991.6
2017-11-24T03:02:51.006Z,991.7
2017-11-24T03:03:52.495Z,991.7
2017-11-24T03:04:53.988Z,991.6
2017-11-24T03:05:55.446Z,991.7
2017-11-24T03:06:56.921Z,991.7
2017-11-24T03:07:58.398Z,991.7
2017-11-24T03:08:59.868Z,991.7
2017-11-24T03:10:01.333Z,991.6
2017-11-24T03:11:02.821Z,991.6
2017-11-24T03:12:04.303Z,991.6
2017-11-24T03:13:05.776Z,991.6
2017-11-24T03:14:07.273Z,991.6
2017-11-24T03:15:08.759Z,991.7
2017-11-24T03:16:10.265Z,991.7
2017-11-24T03:17:11.717Z,991.7
2017-11-24T03:18:13.206Z,991.7
2017-11-24T03:19:14.699Z,991.7
2017-11-24T03:20:16.150Z,991.7
2017-11-24T03:21:17.596Z,991.7
2017-11-24T03:22:19.062Z,991.7
2017-11-24T03:23:20.510Z,991.6
2017-11-24T03:24:21.960Z,991.6
2017-11-24T03:25:23.445Z,991.6
2017-11-24T03:26:24.959Z,991.7
2017-11-24T03:27:26.466Z,991.7
2017-11-24T03:28:27.972Z,991.7
2017-11-24T03:29:29.438Z,991.7
2017-11-24T03:30:30.914Z,991.6
2017-11-24T03:31:32.423Z,991.6
2017-11-24T03:32:33.886Z,991.6
2017-11-24T03:33:35.335Z,991.6
2017-11-24T03:34:36.811Z,991.6
2017-11-24T03:35:38.293Z,991.6
2017-11-24T03:36:39.796Z,991.6
2017-11-24T03:37:41.223Z,991.6
2017-11-24T03:38:42.689Z,991.6
2017-11-24T03:39:44.156Z,991.6
2017-11-24T03:40:45.585Z,991.6
2017-11-24T03:41:47.058Z,991.6
2017-11-24T03:42:48.500Z,991.5
2017-11-24T03:43:49.986Z,991.5
2017-11-24T03:44:51.457Z,991.5
2017-11-24T03:45:52.893Z,991.6
2017-11-24T03:46:54.374Z,991.5
2017-11-24T03:47:55.808Z,991.6
2017-11-24T03:48:57.251Z,991.6
2017-11-24T03:49:58.688Z,991.6
2017-11-24T03:51:00.203Z,991.5
2017-11-24T03:52:01.689Z,991.5
2017-11-24T03:53:03.159Z,991.5
2017-11-24T03:54:04.623Z,991.6
2017-11-24T03:55:06.111Z,991.5
2017-11-24T03:56:07.552Z,991.5
2017-11-24T03:57:09.031Z,991.5
2017-11-24T03:58:10.468Z,991.5
2017-11-24T03:59:11.892Z,991.5
2017-11-24T04:00:13.316Z,991.5
2017-11-24T04:01:14.774Z,991.5
2017-11-24T04:02:16.221Z,991.5
2017-11-24T04:03:17.652Z,991.5
2017-11-24T04:04:19.119Z,991.4
2017-11-24T04:05:20.545Z,991.4
2017-11-24T04:06:21.994Z,991.4
2017-11-24T04:07:23.450Z,991.4
2017-11-24T04:08:24.952Z,991.5
2017-11-24T04:09:26.421Z,991.5
2017-11-24T04:10:27.908Z,991.5
2017-11-24T04:11:29.320Z,991.5
2017-11-24T04:12:30.756Z,991.6
2017-11-24T04:13:32.180Z,991.6
2017-11-24T04:14:33.618Z,991.5
2017-11-24T04:15:35.080Z,991.5
2017-11-24T04:16:36.518Z,991.5
2017-11-24T04:17:37.947Z,991.4
2017-11-24T04:18:39.406Z,991.4
2017-11-24T04:19:40.847Z,991.4
2017-11-24T04:20:42.317Z,991.4
2017-11-24T04:21:43.794Z,991.4
2017-11-24T04:22:45.291Z,991.4
2017-11-24T04:23:46.756Z,991.3
2017-11-24T04:24:48.213Z,991.3
2017-11-24T04:25:49.615Z,991.3
2017-11-24T04:26:51.072Z,991.2
2017-11-24T04:27:52.539Z,991.2
2017-11-24T04:28:54.022Z,991.2
2017-11-24T04:29:55.494Z,991.2
2017-11-24T04:30:56.990Z,991.2
2017-11-24T04:31:58.443Z,991.2
2017-11-24T04:32:59.873Z,991.2
2017-11-24T04:34:01.352Z,991.2
2017-11-24T04:35:02.828Z,991.2
2017-11-24T04:36:04.361Z,991.2
2017-11-24T04:37:05.843Z,991.2
2017-11-24T04:38:07.287Z,991.1
2017-11-24T04:39:08.758Z,991.1
2017-11-24T04:40:10.281Z,991.1
2017-11-24T04:41:11.800Z,991.1
2017-11-24T04:42:13.254Z,991.1
2017-11-24T04:43:14.733Z,991.0
2017-11-24T04:44:16.250Z,991.0
2017-11-24T04:45:17.696Z,991.1
2017-11-24T04:46:19.159Z,991.0
2017-11-24T04:47:20.738Z,991.0
2017-11-24T04:48:22.213Z,991.0
2017-11-24T04:49:23.674Z,991.0
2017-11-24T04:50:25.232Z,991.0
2017-11-24T04:51:26.655Z,991.0
2017-11-24T04:52:28.069Z,991.0
2017-11-24T04:53:29.576Z,991.1
2017-11-24T04:54:31.008Z,991.0
2017-11-24T04:55:32.433Z,991.0
2017-11-24T04:56:33.908Z,991.1
2017-11-24T04:57:35.314Z,991.1
2017-11-24T04:58:36.800Z,991.0
2017-11-24T04:59:38.259Z,991.0
2017-11-24T05:00:39.688Z,991.0
2017-11-24T05:01:41.182Z,991.0
2017-11-24T05:02:42.670Z,990.9
2017-11-24T05:03:44.166Z,991.1
2017-11-24T05:04:45.661Z,991.1
2017-11-24T05:05:47.141Z,991.0
2017-11-24T05:06:48.677Z,991.1
2017-11-24T05:07:50.328Z,991.0
2017-11-24T05:08:51.826Z,991.0
2017-11-24T05:09:53.420Z,991.0
2017-11-24T05:10:54.908Z,991.0
2017-11-24T05:11:56.369Z,991.0
2017-11-24T05:12:57.821Z,990.9
2017-11-24T05:13:59.304Z,990.9
2017-11-24T05:15:00.784Z,990.9
2017-11-24T05:16:02.273Z,991.0
2017-11-24T05:17:03.753Z,990.9
2017-11-24T05:18:05.188Z,990.9
2017-11-24T05:19:06.633Z,991.0
2017-11-24T05:20:08.078Z,991.0
2017-11-24T05:21:09.556Z,991.0
2017-11-24T05:22:11.039Z,991.0
2017-11-24T05:23:12.586Z,991.0
2017-11-24T05:24:14.061Z,991.0
2017-11-24T05:25:15.519Z,991.0
2017-11-24T05:26:17.953Z,991.0
2017-11-24T05:27:19.430Z,991.0
2017-11-24T05:28:20.886Z,991.0
2017-11-24T05:29:22.370Z,991.0
2017-11-24T05:30:23.849Z,990.9
2017-11-24T05:31:26.261Z,990.9
2017-11-24T05:32:27.710Z,990.9
2017-11-24T05:33:29.265Z,990.9
2017-11-24T05:34:30.745Z,990.9
2017-11-24T05:35:32.225Z,990.8
2017-11-24T05:36:33.778Z,990.8
2017-11-24T05:37:35.303Z,990.8
2017-11-24T05:38:36.883Z,990.8
2017-11-24T05:39:38.372Z,990.8
2017-11-24T05:40:39.840Z,990.8
2017-11-24T05:41:41.288Z,990.8
2017-11-24T05:42:42.834Z,990.8
2017-11-24T05:43:44.321Z,990.8
2017-11-24T05:44:45.891Z,990.8
2017-11-24T05:45:47.409Z,990.6
2017-11-24T05:46:49.631Z,990.6
2017-11-24T05:47:51.140Z,990.6
2017-11-24T05:48:52.667Z,990.6
2017-11-24T05:49:54.126Z,990.6
2017-11-24T05:50:55.622Z,990.6
2017-11-24T05:51:57.244Z,990.5
2017-11-24T05:52:58.703Z,990.5
2017-11-24T05:54:00.160Z,990.4
2017-11-24T05:55:01.591Z,990.4
2017-11-24T05:56:03.093Z,990.4
2017-11-24T05:57:04.603Z,990.4
2017-11-24T05:58:06.096Z,990.4
2017-11-24T05:59:07.548Z,990.4
2017-11-24T06:00:09.016Z,990.4
2017-11-24T06:01:10.534Z,990.3
2017-11-24T06:02:12.036Z,990.3
2017-11-24T06:03:13.429Z,990.3
2017-11-24T06:04:14.839Z,990.4
2017-11-24T06:05:16.303Z,990.4
2017-11-24T06:06:17.761Z,990.3
2017-11-24T06:07:19.244Z,990.3
2017-11-24T06:08:20.771Z,990.2
2017-11-24T06:09:22.188Z,990.2
2017-11-24T06:10:23.683Z,990.2
2017-11-24T06:11:25.200Z,990.2
2017-11-24T06:12:26.758Z,990.3
2017-11-24T06:13:28.250Z,990.2
2017-11-24T06:14:29.696Z,990.2
2017-11-24T06:15:31.231Z,990.2
2017-11-24T06:16:32.787Z,990.2
2017-11-24T06:17:34.299Z,990.2
2017-11-24T06:18:36.488Z,990.2
2017-11-24T06:19:37.981Z,990.3
2017-11-24T06:20:39.470Z,990.3
2017-11-24T06:21:40.992Z,990.3
2017-11-24T06:22:42.483Z,990.3
2017-11-24T06:23:43.965Z,990.3
2017-11-24T06:24:45.454Z,990.3
2017-11-24T06:25:46.922Z,990.2
2017-11-24T06:26:48.409Z,990.3
2017-11-24T06:27:49.891Z,990.3
2017-11-24T06:28:51.306Z,990.3
2017-11-24T06:29:52.826Z,990.3
2017-11-24T06:30:54.329Z,990.3
2017-11-24T06:31:55.835Z,990.3
2017-11-24T06:32:57.301Z,990.4
2017-11-24T06:33:58.757Z,990.3
2017-11-24T06:35:00.292Z,990.3
2017-11-24T06:36:01.731Z,990.4
2017-11-24T06:37:03.228Z,990.3
2017-11-24T06:38:04.778Z,990.4
2017-11-24T06:39:06.208Z,990.4
2017-11-24T06:40:07.661Z,990.4
2017-11-24T06:41:09.145Z,990.4
2017-11-24T06:42:10.664Z,990.4
2017-11-24T06:43:12.148Z,990.4
2017-11-24T06:44:13.651Z,990.4
2017-11-24T06:45:15.101Z,990.3
2017-11-24T06:46:16.959Z,990.3
2017-11-24T06:47:18.454Z,990.3
2017-11-24T06:48:19.918Z,990.3
2017-11-24T06:49:21.381Z,990.4
2017-11-24T06:50:23.404Z,990.3
2017-11-24T06:51:24.951Z,990.4
2017-11-24T06:52:26.508Z,990.3
2017-11-24T06:53:27.987Z,990.3
2017-11-24T06:54:29.464Z,990.3
2017-11-24T06:55:30.932Z,990.2
2017-11-24T06:56:32.394Z,990.2
2017-11-24T06:57:33.912Z,990.2
2017-11-24T06:58:35.341Z,990.2
2017-11-24T06:59:36.795Z,990.1
2017-11-24T07:00:38.237Z,990.0
2017-11-24T07:01:39.698Z,990.1
2017-11-24T07:02:41.164Z,990.1
2017-11-24T07:03:42.589Z,990.1
2017-11-24T07:04:44.050Z,990.0
2017-11-24T07:05:45.548Z,990.0
2017-11-24T07:06:49.531Z,990.0
2017-11-24T07:07:51.364Z,990.0
2017-11-24T07:08:53.156Z,990.1
2017-11-24T07:09:55.641Z,990.1
2017-11-24T07:10:57.731Z,990.1
2017-11-24T07:11:59.252Z,990.1
2017-11-24T07:13:01.318Z,990.2
2017-11-24T07:14:03.208Z,990.1
2017-11-24T07:15:05.112Z,990.1
2017-11-24T07:16:06.691Z,990.1
2017-11-24T07:17:09.502Z,990.1
2017-11-24T07:18:11.077Z,990.1
2017-11-24T07:19:14.117Z,990.1
2017-11-24T07:20:15.740Z,990.1
2017-11-24T07:21:17.437Z,990.0
2017-11-24T07:22:19.137Z,989.9
2017-11-24T07:23:20.954Z,990.0
2017-11-24T07:24:22.409Z,990.0
2017-11-24T07:25:24.419Z,990.1
2017-11-24T07:26:25.989Z,990.2
2017-11-24T07:27:27.518Z,990.1
2017-11-24T07:28:29.066Z,990.2
2017-11-24T07:29:30.559Z,990.2
2017-11-24T07:30:31.979Z,990.3
2017-11-24T07:31:33.427Z,990.3
2017-11-24T07:32:34.921Z,990.4
2017-11-24T07:33:36.365Z,990.3
2017-11-24T07:34:37.838Z,990.4
2017-11-24T07:35:39.317Z,990.4
2017-11-24T07:36:40.782Z,990.4
2017-11-24T07:37:42.283Z,990.4
2017-11-24T07:38:43.725Z,990.4
2017-11-24T07:39:45.224Z,990.4
2017-11-24T07:40:46.714Z,990.4
2017-11-24T07:41:48.152Z,990.4
2017-11-24T07:42:49.849Z,990.4
2017-11-24T07:43:51.301Z,990.4
2017-11-24T07:44:52.766Z,990.4
2017-11-24T07:45:54.318Z,990.3
2017-11-24T07:46:55.754Z,990.3
2017-11-24T07:48:01.399Z,990.2
2017-11-24T07:49:02.973Z,990.3
2017-11-24T07:50:04.429Z,990.3
2017-11-24T07:51:05.900Z,990.4
2017-11-24T07:52:07.357Z,990.4
2017-11-24T07:53:08.832Z,990.5
2017-11-24T07:54:10.329Z,990.4
2017-11-24T07:55:11.790Z,990.5
2017-11-24T07:56:13.294Z,990.4
2017-11-24T07:57:14.761Z,990.5
2017-11-24T07:58:16.228Z,990.5
2017-11-24T07:59:17.686Z,990.4
2017-11-24T08:00:19.299Z,990.5
2017-11-24T08:01:20.757Z,990.5
2017-11-24T08:02:22.226Z,990.6
2017-11-24T08:03:23.706Z,990.5
2017-11-24T08:04:25.152Z,990.6
2017-11-24T08:05:26.648Z,990.6
2017-11-24T08:06:28.155Z,990.6
2017-11-24T08:07:29.629Z,990.7
2017-11-24T08:08:31.986Z,990.8
2017-11-24T08:09:33.448Z,990.7
2017-11-24T08:10:34.921Z,990.7
2017-11-24T08:11:36.372Z,990.7
2017-11-24T08:12:37.819Z,990.6
2017-11-24T08:13:39.371Z,990.6
2017-11-24T08:14:40.828Z,990.6
2017-11-24T08:15:42.274Z,990.5
2017-11-24T08:16:43.722Z,990.5
2017-11-24T08:17:45.220Z,990.4
2017-11-24T08:18:46.711Z,990.5
2017-11-24T08:19:48.174Z,990.5
2017-11-24T08:20:49.685Z,990.6
2017-11-24T08:21:51.180Z,990.6
2017-11-24T08:22:52.706Z,990.6
2017-11-24T08:23:54.129Z,990.6
2017-11-24T08:24:55.646Z,990.6
2017-11-24T08:25:57.097Z,990.5
2017-11-24T08:26:58.540Z,990.6
2017-11-24T08:28:00.029Z,990.6
2017-11-24T08:29:01.473Z,990.6
2017-11-24T08:30:02.920Z,990.6
2017-11-24T08:31:04.425Z,990.6
2017-11-24T08:32:05.889Z,990.6
2017-11-24T08:33:07.325Z,990.6
2017-11-24T08:34:08.787Z,990.7
2017-11-24T08:35:10.258Z,990.7
2017-11-24T08:36:11.716Z,990.7
2017-11-24T08:37:13.195Z,990.7
2017-11-24T08:38:14.668Z,990.5
2017-11-24T08:39:16.147Z,990.6
2017-11-24T08:40:17.641Z,990.6
2017-11-24T08:41:19.147Z,990.7
2017-11-24T08:42:20.596Z,990.7
2017-11-24T08:43:22.028Z,990.8
2017-11-24T08:44:23.530Z,990.7
2017-11-24T08:45:24.967Z,990.7
2017-11-24T08:46:26.477Z,990.7
2017-11-24T08:47:28.070Z,990.8
2017-11-24T08:48:29.546Z,990.7
2017-11-24T08:49:30.981Z,990.8
2017-11-24T08:50:32.463Z,990.9
2017-11-24T08:51:33.986Z,990.9
2017-11-24T08:52:35.492Z,990.9
2017-11-24T08:53:37.054Z,990.8
2017-11-24T08:54:38.752Z,990.8
2017-11-24T08:55:40.233Z,990.8
2017-11-24T08:56:41.776Z,990.8
2017-11-24T08:57:43.225Z,990.8
2017-11-24T08:58:44.675Z,990.7
2017-11-24T08:59:46.120Z,990.7
2017-11-24T09:00:47.572Z,990.7
2017-11-24T09:01:49.026Z,990.7
2017-11-24T09:02:50.500Z,990.7
2017-11-24T09:03:52.121Z,990.7
2017-11-24T09:04:54.813Z,990.6
2017-11-24T09:05:56.243Z,990.7
2017-11-24T09:06:57.710Z,990.6
2017-11-24T09:07:59.142Z,990.6
2017-11-24T09:09:00.589Z,990.6
2017-11-24T09:10:02.058Z,990.6
2017-11-24T09:11:03.524Z,990.6
2017-11-24T09:12:04.991Z,990.6
2017-11-24T09:13:06.444Z,990.5
2017-11-24T09:14:08.625Z,990.5
2017-11-24T09:15:10.075Z,990.5
2017-11-24T09:16:11.537Z,990.4
2017-11-24T09:17:12.997Z,990.5
2017-11-24T09:18:14.478Z,990.5
2017-11-24T09:19:16.125Z,990.5
2017-11-24T09:20:17.578Z,990.4
2017-11-24T09:21:19.085Z,990.4
2017-11-24T09:22:20.567Z,990.5
2017-11-24T09:23:22.025Z,990.4
2017-11-24T09:24:23.505Z,990.4
2017-11-24T09:25:25.007Z,990.3
2017-11-24T09:26:26.456Z,990.5
2017-11-24T09:27:27.921Z,990.4
2017-11-24T09:28:29.646Z,990.6
2017-11-24T09:29:32.797Z,990.4
2017-11-24T09:30:34.330Z,990.4
2017-11-24T09:31:35.846Z,990.4
2017-11-24T09:32:37.312Z,990.4
2017-11-24T09:33:38.734Z,990.3
2017-11-24T09:34:40.190Z,990.4
2017-11-24T09:35:41.645Z,990.4
2017-11-24T09:36:43.138Z,990.4
2017-11-24T09:37:44.594Z,990.4
2017-11-24T09:38:46.044Z,990.4
2017-11-24T09:39:47.566Z,990.3
2017-11-24T09:40:49.073Z,990.3
2017-11-24T09:41:50.583Z,990.3
2017-11-24T09:42:51.956Z,990.3
2017-11-24T09:43:53.373Z,990.3
2017-11-24T09:44:54.836Z,990.3
2017-11-24T09:45:56.329Z,990.3
2017-11-24T09:46:58.350Z,990.3
2017-11-24T09:47:59.710Z,990.2
2017-11-24T09:49:01.179Z,990.3
2017-11-24T09:50:02.635Z,990.3
2017-11-24T09:51:05.213Z,990.3
2017-11-24T09:52:06.659Z,990.2
2017-11-24T09:53:08.884Z,990.3
2017-11-24T09:54:10.375Z,990.3
2017-11-24T09:55:11.835Z,990.3
2017-11-24T09:56:13.513Z,990.3
2017-11-24T09:57:14.949Z,990.4
2017-11-24T09:58:16.434Z,990.3
2017-11-24T09:59:17.897Z,990.3
2017-11-24T10:00:19.384Z,990.3
2017-11-24T10:01:21.055Z,990.3
2017-11-24T10:02:22.691Z,990.3
2017-11-24T10:03:24.200Z,990.3
2017-11-24T10:04:25.817Z,990.2
2017-11-24T10:05:28.209Z,990.4
2017-11-24T10:06:29.710Z,990.5
2017-11-24T10:07:31.145Z,990.5
2017-11-24T10:08:32.590Z,990.4
2017-11-24T10:09:34.074Z,990.3
2017-11-24T10:10:35.529Z,990.4
2017-11-24T10:11:36.933Z,990.4
2017-11-24T10:12:38.409Z,990.4
2017-11-24T10:13:39.825Z,990.3
2017-11-24T10:14:41.839Z,990.2
2017-11-24T10:15:43.258Z,990.5
2017-11-24T10:16:44.661Z,990.5
2017-11-24T10:17:46.093Z,990.6
2017-11-24T10:18:47.485Z,990.5
2017-11-24T10:19:48.900Z,990.5
2017-11-24T10:20:50.426Z,990.4
2017-11-24T10:21:51.898Z,990.4
2017-11-24T10:22:53.710Z,990.4
2017-11-24T10:23:55.155Z,990.3
2017-11-24T10:24:56.644Z,990.3
2017-11-24T10:25:58.131Z,990.2
2017-11-24T10:26:59.589Z,990.3
2017-11-24T10:28:01.065Z,990.2
2017-11-24T10:29:03.103Z,990.2
2017-11-24T10:30:04.588Z,990.2
2017-11-24T10:31:06.044Z,990.1
2017-11-24T10:32:07.592Z,990.1
2017-11-24T10:33:09.024Z,990.1
2017-11-24T10:34:10.517Z,990.1
2017-11-24T10:35:12.630Z,990.1
2017-11-24T10:36:14.088Z,990.1
2017-11-24T10:37:15.567Z,990.1
2017-11-24T10:38:17.079Z,990.1
2017-11-24T10:39:18.553Z,990.1
2017-11-24T10:40:20.030Z,990.1
2017-11-24T10:41:21.542Z,989.9
2017-11-24T10:42:22.989Z,990.0
2017-11-24T10:43:24.975Z,990.1
2017-11-24T10:44:26.423Z,990.2
2017-11-24T10:45:27.899Z,990.2
2017-11-24T10:46:29.332Z,990.2
2017-11-24T10:47:30.797Z,990.2
2017-11-24T10:48:32.240Z,990.2
2017-11-24T10:49:33.698Z,990.2
2017-11-24T10:50:35.099Z,990.2
2017-11-24T10:51:36.530Z,990.1
2017-11-24T10:52:37.991Z,990.1
2017-11-24T10:53:39.468Z,990.1
2017-11-24T10:54:40.991Z,990.1
2017-11-24T10:55:42.684Z,990.0
2017-11-24T10:56:44.162Z,990.0
2017-11-24T10:57:45.611Z,989.9
2017-11-24T10:58:47.123Z,989.9
2017-11-24T10:59:48.564Z,989.9
2017-11-24T11:00:50.029Z,990.0
2017-11-24T11:01:51.482Z,989.9
2017-11-24T11:02:52.948Z,989.8
2017-11-24T11:03:54.594Z,989.9
2017-11-24T11:04:56.010Z,989.8
2017-11-24T11:05:58.280Z,989.8
2017-11-24T11:07:01.823Z,989.7
2017-11-24T11:08:08.025Z,989.7
2017-11-24T11:09:21.315Z,989.7
2017-11-24T11:10:29.913Z,989.7
2017-11-24T11:11:31.833Z,989.7
2017-11-24T11:12:35.346Z,989.6
2017-11-24T11:13:37.728Z,989.7
2017-11-24T11:14:58.016Z,989.8
2017-11-24T11:16:36.499Z,989.7
2017-11-24T11:20:14.658Z,989.7
2017-11-24T11:21:16.137Z,989.7
2017-11-24T11:22:19.458Z,989.8
2017-11-24T11:23:23.854Z,989.8
2017-11-24T11:24:25.351Z,989.9
2017-11-24T11:25:28.852Z,989.9
2017-11-24T11:26:30.714Z,990.0
2017-11-24T11:27:32.369Z,990.0
2017-11-24T11:28:33.931Z,990.0
2017-11-24T11:29:35.863Z,990.0
2017-11-24T11:30:37.334Z,990.0
2017-11-24T11:31:39.134Z,990.1
2017-11-24T11:32:40.888Z,990.1
2017-11-24T11:33:42.535Z,990.0
2017-11-24T11:34:44.152Z,990.0
2017-11-24T11:35:45.630Z,990.1
2017-11-24T11:36:47.034Z,990.1
2017-11-24T11:37:48.508Z,990.1
2017-11-24T11:38:49.949Z,990.1
2017-11-24T11:39:52.096Z,990.1
2017-11-24T11:40:53.867Z,990.1
2017-11-24T11:41:55.276Z,990.0
2017-11-24T11:42:56.752Z,990.1
2017-11-24T11:43:58.225Z,990.1
2017-11-24T11:44:59.694Z,990.0
2017-11-24T11:46:01.289Z,990.1
2017-11-24T11:47:02.805Z,990.1
2017-11-24T11:48:04.286Z,990.0
2017-11-24T11:49:05.785Z,990.1
2017-11-24T11:50:12.335Z,990.0
2017-11-24T11:51:13.837Z,990.1
2017-11-24T11:52:15.372Z,990.1
2017-11-24T11:53:16.907Z,990.1
2017-11-24T11:54:18.416Z,990.1
2017-11-24T11:55:19.974Z,990.2
2017-11-24T11:56:22.705Z,990.0
2017-11-24T11:57:24.216Z,990.1
2017-11-24T11:58:25.695Z,990.1
2017-11-24T11:59:27.220Z,990.1
2017-11-24T12:00:28.713Z,990.2
2017-11-24T12:01:30.140Z,990.1
2017-11-24T12:02:33.184Z,990.1
2017-11-24T12:03:34.667Z,990.1
2017-11-24T12:04:36.185Z,990.1
2017-11-24T12:05:37.655Z,990.2
2017-11-24T12:06:39.155Z,990.2
2017-11-24T12:07:40.693Z,990.2
2017-11-24T12:08:42.200Z,990.3
2017-11-24T12:09:43.685Z,990.2
2017-11-24T12:10:45.248Z,990.2
2017-11-24T12:11:46.713Z,990.2
2017-11-24T12:12:48.148Z,990.3
2017-11-24T12:13:49.551Z,990.1
2017-11-24T12:14:51.059Z,990.2
2017-11-24T12:15:52.488Z,990.2
2017-11-24T12:16:53.897Z,990.2
2017-11-24T12:17:55.318Z,990.2
2017-11-24T12:19:44.677Z,990.2
2017-11-24T12:20:46.181Z,990.2
2017-11-24T12:21:47.687Z,990.2
2017-11-24T12:22:49.226Z,990.2
2017-11-24T12:23:50.782Z,990.2
2017-11-24T12:24:52.289Z,990.2
2017-11-24T12:25:53.816Z,990.2
2017-11-24T12:26:55.292Z,990.2
2017-11-24T12:27:56.802Z,990.1
2017-11-24T12:28:58.316Z,990.0
2017-11-24T12:29:59.759Z,990.1
2017-11-24T12:31:01.259Z,990.1
2017-11-24T12:32:02.775Z,990.0
2017-11-24T12:33:04.281Z,990.1
2017-11-24T12:34:05.776Z,990.0
2017-11-24T12:35:07.221Z,990.1
2017-11-24T12:36:08.761Z,990.0
2017-11-24T12:37:10.292Z,990.0
2017-11-24T12:38:11.877Z,990.0
2017-11-24T12:39:13.432Z,989.9
2017-11-24T12:40:15.030Z,990.0
2017-11-24T12:41:16.525Z,989.9
2017-11-24T12:42:18.034Z,989.9
2017-11-24T12:43:19.535Z,989.9
2017-11-24T12:44:21.094Z,990.0
2017-11-24T12:45:22.638Z,990.0
2017-11-24T12:46:24.104Z,989.9
2017-11-24T12:47:25.573Z,990.0
2017-11-24T12:48:27.085Z,990.0
2017-11-24T12:49:28.555Z,990.0
2017-11-24T12:50:30.004Z,990.0
2017-11-24T12:51:31.429Z,990.0
2017-11-24T12:52:32.948Z,990.0
2017-11-24T12:53:34.459Z,990.0
2017-11-24T12:54:35.924Z,989.9
2017-11-24T12:55:37.423Z,990.0
2017-11-24T12:56:38.891Z,989.9
2017-11-24T12:57:40.444Z,989.9
2017-11-24T12:58:41.900Z,989.9
2017-11-24T12:59:43.385Z,989.9
2017-11-24T13:00:44.867Z,989.9
2017-11-24T13:01:46.298Z,989.9
2017-11-24T13:02:47.847Z,989.9
2017-11-24T13:03:49.350Z,989.9
2017-11-24T13:04:50.807Z,989.9
2017-11-24T13:05:52.331Z,990.0
2017-11-24T13:06:53.805Z,990.0
2017-11-24T13:07:55.340Z,990.0
2017-11-24T13:08:56.798Z,990.0
2017-11-24T13:09:58.308Z,990.0
2017-11-24T13:10:59.849Z,990.0
2017-11-24T13:12:01.359Z,990.0
2017-11-24T13:13:02.910Z,990.0
2017-11-24T13:14:04.401Z,990.0
2017-11-24T13:15:05.909Z,989.9
2017-11-24T13:16:07.377Z,989.9
2017-11-24T13:17:08.940Z,990.0